Hlavní strana
METAR-TAF:

METAR-TAF

Letiště :

Heliport

Værøy, Norsko

zeměpisná šířka: 67-39-16N, zeměpisná délka: 12-43-37E, výška: 5 m

Aktuální stav počasí

Zpráva byla vytvořena před 1 hodinou a 7 minutami, v 14:50 UTC
Západoseverozápadní vítr 20 kt s nárazy do 40 kt, proměnlivý mezi západojihozápadním a severoseverozápadním
Teplota 1°C
Vlhkost vzduchu 75%
Tlak 975 hPa
Viditelnost 10 km a více
Skoro jasno ve výšce 1200 ft
Polojasno ve výšce 1600 ft, Cumulonimbus.
Oblačno až skoro zataženo ve výšce 5600 ft
přeháňky v blízkosti

METAR: ENVR 231450Z 29020G40KT 240V340 9999 VCSH FEW012 SCT016CB BKN056 01/M03 Q0975

Čas: 16:57 (15:57 UTC)


TAF: chybějící

Stav a předpovědi počasí z více než 4 000 letišť (zprávy METAR a TAF).

Červené a žluté tečky na mapě představují dostupné meteorologické stanice.

Když kurzor umístíte na tečku, zobrazí se název stanice.

Pak kliknutím zobrazíte stav a předpověď počasí.

Chcete-li změnit mapu, kliknutím na zelené tlačítko se znaménkem +mapu přiblížíte, kliknutím na zelené tlačítko se znaménkem – mapu oddálíte a kliknutím na zelené šipky přejdete na sousední mapy.


METAR-TAF: